Date,TemperatureHighF,TemperatureAvgF,TemperatureLowF,DewpointHighF,DewpointAvgF,DewpointLowF,HumidityHigh,HumidityAvg,HumidityLow,PressureMaxIn,PressureMinIn,WindSpeedMaxMPH,WindSpeedAvgMPH,GustSpeedMaxMPH,PrecipitationSumIn
2013-4-1,46,40,32,43,28,14,92,65,35,30.03,29.70,19,7,29,0.01
2013-4-2,37,31,25,19,15,13,72,55,40,30.22,30.03,16,4,20,0.00
2013-4-3,38,31,25,21,14,10,71,51,33,30.43,30.21,14,4,23,0.00
2013-4-4,53,35,17,20,15,11,81,49,23,30.42,30.00,5,1,8,0.00
2013-4-5,53,43,33,32,24,18,63,48,37,30.18,29.95,12,4,21,0.00
2013-4-6,57,42,21,25,19,15,85,45,20,30.30,30.03,5,1,9,0.00
2013-4-7,71,61,50,47,40,22,65,46,33,30.02,29.86,21,7,26,0.00
2013-4-8,73,61,47,52,46,40,80,61,43,30.02,29.86,19,3,23,0.00
2013-4-9,79,69,58,58,54,50,81,60,44,30.07,29.87,16,4,23,0.00
2013-4-10,79,69,58,64,58,52,95,69,53,29.91,29.75,13,5,27,0.41
2013-4-11,74,64,56,60,57,52,96,80,61,29.86,29.56,10,2,19,0.01
2013-4-12,61,55,44,59,49,34,96,81,61,29.84,29.46,24,6,26,0.36
2013-4-13,51,43,37,36,34,32,82,70,53,30.03,29.84,17,5,26,0.00
2013-4-14,62,48,31,40,34,27,87,62,42,30.16,30.01,11,1,11,0.00
2013-4-15,66,60,54,52,46,37,71,62,52,30.07,29.97,9,3,14,0.00
2013-4-16,78,63,53,61,54,48,95,74,55,30.16,30.00,14,4,25,0.65
2013-4-17,67,58,50,57,53,48,96,83,67,30.22,30.07,6,1,8,0.00
2013-4-18,84,71,58,63,58,55,91,67,44,30.09,29.72,11,4,21,0.00
2013-4-19,70,58,43,61,48,30,88,71,60,29.84,29.44,16,7,33,0.16
2013-4-20,46,40,34,31,27,23,82,60,45,30.41,29.84,17,7,26,0.00
2013-4-21,54,40,25,29,24,21,87,54,30,30.61,30.42,6,1,9,0.00
2013-4-22,62,50,39,39,29,23,60,46,30,30.47,30.27,7,1,10,0.00
2013-4-23,71,55,38,44,36,30,80,53,32,30.27,29.95,6,1,12,0.00
2013-4-24,68,55,38,56,45,34,91,71,50,30.16,29.73,30,5,32,0.30
2013-4-25,56,44,32,39,34,30,94,70,40,30.36,30.16,18,4,23,0.01
2013-4-26,60,47,33,39,34,29,96,65,33,30.48,30.36,9,1,9,0.00
2013-4-27,73,56,34,43,36,29,86,51,27,30.40,30.14,4,1,7,0.00
2013-4-28,60,55,52,56,48,41,94,78,52,30.14,29.91,5,1,9,0.30
2013-4-29,63,56,51,57,53,48,93,88,79,30.01,29.92,7,1,8,0.05
2013-4-30,74,61,51,58,54,50,97,78,55,30.16,30.01,4,1,9,0.01